createdAt,value
2023-05-19T00:01:21.536Z,14.00
2023-05-19T00:04:07.865Z,13.18
2023-05-19T00:06:39.366Z,13.18
2023-05-19T00:09:10.788Z,12.63
2023-05-19T00:11:41.993Z,12.00
2023-05-19T00:14:14.896Z,11.63
2023-05-19T00:16:42.418Z,11.65
2023-05-19T00:19:10.357Z,11.68
2023-05-19T00:21:41.184Z,11.80
2023-05-19T00:24:10.790Z,11.75
2023-05-19T00:26:37.495Z,11.50
2023-05-19T00:29:04.681Z,11.30
2023-05-19T00:31:31.875Z,11.05
2023-05-19T00:33:58.559Z,11.52
2023-05-19T00:36:27.668Z,11.48
2023-05-19T00:38:57.421Z,10.90
2023-05-19T00:41:26.861Z,11.20
2023-05-19T00:43:56.662Z,11.00
2023-05-19T00:46:23.488Z,10.77
2023-05-19T00:48:50.129Z,11.55
2023-05-19T00:51:17.363Z,11.00
2023-05-19T00:53:51.349Z,10.68
2023-05-19T00:56:24.475Z,10.45
2023-05-19T00:58:54.552Z,11.20
2023-05-19T01:01:24.568Z,10.95
2023-05-19T01:03:51.556Z,10.55
2023-05-19T01:06:19.450Z,11.07
2023-05-19T01:08:49.324Z,10.48
2023-05-19T01:11:15.914Z,11.15
2023-05-19T01:13:43.378Z,10.45
2023-05-19T01:16:34.895Z,11.13
2023-05-19T01:19:16.522Z,10.30
2023-05-19T01:22:14.796Z,10.57
2023-05-19T01:25:03.026Z,10.80
2023-05-19T01:27:49.529Z,11.55
2023-05-19T01:33:11.395Z,9.75
2023-05-19T01:35:39.863Z,10.20
2023-05-19T01:38:11.388Z,9.32
2023-05-19T01:40:42.847Z,10.35
2023-05-19T01:43:12.636Z,9.57
2023-05-19T01:45:40.865Z,9.93
2023-05-19T01:48:11.170Z,10.32
2023-05-19T01:50:38.219Z,9.55
2023-05-19T01:53:06.806Z,9.68
2023-05-19T01:55:41.625Z,9.88
2023-05-19T01:58:20.819Z,10.35
2023-05-19T02:01:03.015Z,9.88
2023-05-19T02:03:46.110Z,10.15
2023-05-19T02:06:59.905Z,9.68
2023-05-19T02:09:53.610Z,9.95
2023-05-19T02:12:30.982Z,9.57
2023-05-19T02:15:24.865Z,10.45
2023-05-19T02:17:56.268Z,10.13
2023-05-19T02:20:27.413Z,9.95
2023-05-19T02:22:56.118Z,9.98
2023-05-19T02:25:25.671Z,10.48
2023-05-19T02:27:58.944Z,9.98
2023-05-19T02:30:28.300Z,10.02
2023-05-19T02:32:57.277Z,10.45
2023-05-19T02:35:31.325Z,10.02
2023-05-19T02:37:58.964Z,10.23
2023-05-19T02:40:31.665Z,10.30
2023-05-19T02:42:58.374Z,10.02
2023-05-19T02:45:28.090Z,10.38
2023-05-19T02:47:54.798Z,11.77
2023-05-19T02:50:22.657Z,11.57
2023-05-19T02:52:49.292Z,12.13
2023-05-19T02:55:17.730Z,12.50
2023-05-19T02:57:46.269Z,11.50
2023-05-19T03:00:13.550Z,11.43
2023-05-19T03:02:44.448Z,11.60
2023-05-19T03:05:11.282Z,10.35
2023-05-19T03:07:37.914Z,11.60
2023-05-19T03:10:06.739Z,11.07
2023-05-19T03:12:33.861Z,11.05
2023-05-19T03:15:01.019Z,11.85
2023-05-19T03:17:28.859Z,11.30
2023-05-19T03:19:55.852Z,11.82
2023-05-19T03:22:22.492Z,11.55
2023-05-19T03:24:51.191Z,11.82
2023-05-19T03:27:17.901Z,12.30
2023-05-19T03:29:44.533Z,11.57
2023-05-19T03:32:11.271Z,12.60
2023-05-19T03:34:37.942Z,12.98
2023-05-19T03:37:04.865Z,13.60
2023-05-19T03:39:31.543Z,13.07
2023-05-19T03:41:58.176Z,12.73
2023-05-19T03:44:24.813Z,10.85
2023-05-19T03:46:53.050Z,12.02
2023-05-19T03:49:19.686Z,10.27
2023-05-19T03:51:46.267Z,9.02
2023-05-19T03:54:14.044Z,8.85
2023-05-19T03:56:43.283Z,8.35
2023-05-19T03:59:12.383Z,8.05
2023-05-19T04:01:39.203Z,8.05
2023-05-19T04:04:05.900Z,8.00
2023-05-19T04:06:33.957Z,9.07
2023-05-19T04:09:04.093Z,10.20
2023-05-19T04:11:30.841Z,9.55
2023-05-19T04:13:57.528Z,9.63
2023-05-19T04:16:24.353Z,9.40
2023-05-19T04:18:51.215Z,9.45
2023-05-19T04:21:17.874Z,9.45
2023-05-19T04:23:46.612Z,9.32
2023-05-19T04:26:14.823Z,9.43
2023-05-19T04:28:42.503Z,8.90
2023-05-19T04:31:13.171Z,8.77
2023-05-19T04:33:41.019Z,9.23
2023-05-19T04:36:10.630Z,8.90
2023-05-19T04:38:39.958Z,9.55
2023-05-19T04:41:10.718Z,10.48
2023-05-19T04:43:41.839Z,9.30
2023-05-19T04:46:13.194Z,9.48
2023-05-19T04:48:41.267Z,9.32
2023-05-19T04:51:08.145Z,9.40
2023-05-19T04:53:35.064Z,9.45
2023-05-19T04:56:02.307Z,9.07
2023-05-19T04:58:29.113Z,8.65
2023-05-19T05:00:56.545Z,8.63
2023-05-19T05:03:23.741Z,8.07
2023-05-19T05:05:51.068Z,7.95
2023-05-19T05:08:25.155Z,8.77
2023-05-19T05:10:53.042Z,8.40
2023-05-19T05:13:22.999Z,9.52
2023-05-19T05:15:50.305Z,7.93
2023-05-19T05:18:17.998Z,7.78
2023-05-19T05:20:49.164Z,7.35
2023-05-19T05:23:16.806Z,7.25
2023-05-19T05:25:45.186Z,7.70
2023-05-19T05:28:11.995Z,8.07
2023-05-19T05:30:38.939Z,7.22
2023-05-19T05:33:09.657Z,7.20
2023-05-19T05:35:36.601Z,7.05
2023-05-19T05:38:05.255Z,7.57
2023-05-19T05:40:37.050Z,7.20
2023-05-19T05:43:03.660Z,7.15
2023-05-19T05:45:30.426Z,7.50
2023-05-19T05:48:06.281Z,7.25
2023-05-19T05:50:38.958Z,6.95
2023-05-19T05:53:09.612Z,6.90
2023-05-19T05:55:36.581Z,7.28
2023-05-19T05:58:03.726Z,6.90
2023-05-19T06:00:38.282Z,6.95
2023-05-19T06:03:11.401Z,7.30
2023-05-19T06:05:38.681Z,8.07
2023-05-19T06:08:13.298Z,7.60
2023-05-19T06:10:41.845Z,8.05
2023-05-19T06:13:13.709Z,8.50
2023-05-19T06:15:40.450Z,8.88
2023-05-19T06:18:07.291Z,7.88
2023-05-19T06:20:36.495Z,8.13
2023-05-19T06:23:07.685Z,8.30
2023-05-19T06:25:35.196Z,8.93
2023-05-19T06:28:04.660Z,9.18
2023-05-19T06:30:31.758Z,8.85
2023-05-19T06:32:59.366Z,9.40
2023-05-19T06:35:26.170Z,9.13
2023-05-19T06:37:53.216Z,9.43
2023-05-19T06:40:23.375Z,8.57
2023-05-19T06:42:50.048Z,8.77
2023-05-19T06:45:17.127Z,8.75
2023-05-19T06:47:51.176Z,8.57
2023-05-19T06:50:17.952Z,8.20
2023-05-19T06:52:47.058Z,8.65
2023-05-19T06:55:19.542Z,8.00
2023-05-19T06:57:48.266Z,8.55
2023-05-19T07:00:23.651Z,8.43
2023-05-19T07:03:09.030Z,7.57
2023-05-19T07:05:39.411Z,7.80
2023-05-19T07:08:06.898Z,7.50
2023-05-19T07:10:35.714Z,7.68
2023-05-19T07:13:03.416Z,8.15
2023-05-19T07:15:30.051Z,7.90
2023-05-19T07:18:04.706Z,7.88
2023-05-19T07:20:33.727Z,8.17
2023-05-19T07:23:02.666Z,7.10
2023-05-19T07:25:35.199Z,7.78
2023-05-19T07:28:01.799Z,7.78
2023-05-19T07:30:34.470Z,7.25
2023-05-19T07:33:04.092Z,6.93
2023-05-19T07:35:33.668Z,6.72
2023-05-19T07:38:00.296Z,6.72
2023-05-19T07:40:27.088Z,6.20
2023-05-19T07:42:58.938Z,6.80
2023-05-19T07:45:25.776Z,6.40
2023-05-19T07:47:54.348Z,6.13
2023-05-19T07:50:24.100Z,6.78
2023-05-19T07:52:52.121Z,7.07
2023-05-19T07:55:23.524Z,7.40
2023-05-19T07:57:53.000Z,8.15
2023-05-19T08:00:21.005Z,7.18
2023-05-19T08:02:47.965Z,7.60
2023-05-19T08:05:17.694Z,7.60
2023-05-19T08:07:44.524Z,6.90
2023-05-19T08:10:13.350Z,7.47
2023-05-19T08:12:40.159Z,7.00
2023-05-19T08:15:08.541Z,7.60
2023-05-19T08:17:40.398Z,7.50
2023-05-19T08:20:15.617Z,7.63
2023-05-19T08:22:47.615Z,7.75
2023-05-19T08:25:14.337Z,7.30
2023-05-19T08:27:41.473Z,6.97
2023-05-19T08:30:16.168Z,7.10
2023-05-19T08:32:44.143Z,6.83
2023-05-19T08:35:13.656Z,8.00
2023-05-19T08:37:41.050Z,6.47
2023-05-19T08:40:17.421Z,6.53
2023-05-19T08:42:50.179Z,6.80
2023-05-19T08:45:17.900Z,6.60
2023-05-19T08:47:47.138Z,6.43
2023-05-19T08:50:21.459Z,5.90
2023-05-19T08:52:53.540Z,5.95
2023-05-19T08:55:51.690Z,6.32
2023-05-19T08:58:23.528Z,6.75
2023-05-19T09:00:51.292Z,6.20
2023-05-19T09:06:00.716Z,5.90
2023-05-19T09:08:29.291Z,5.25
2023-05-19T09:11:00.914Z,5.60
2023-05-19T09:13:29.609Z,5.90
2023-05-19T09:16:01.740Z,6.25
2023-05-19T09:18:28.426Z,6.00
2023-05-19T09:21:04.911Z,5.90
2023-05-19T09:23:41.000Z,5.50
2023-05-19T09:26:10.405Z,6.40
2023-05-19T09:28:40.654Z,5.95
2023-05-19T09:31:14.151Z,6.03
2023-05-19T09:33:45.629Z,5.30
2023-05-19T09:36:19.163Z,5.30
2023-05-19T09:38:46.026Z,4.65
2023-05-19T09:41:16.850Z,5.10
2023-05-19T09:43:57.556Z,4.95
2023-05-19T09:46:32.291Z,4.57
2023-05-19T09:49:19.593Z,4.25
2023-05-19T09:51:48.437Z,4.30
2023-05-19T09:54:17.893Z,4.28
2023-05-19T09:56:44.577Z,4.20
2023-05-19T09:59:16.432Z,4.50
2023-05-19T10:01:51.485Z,3.90
2023-05-19T10:04:18.441Z,4.28
2023-05-19T10:06:57.616Z,4.00
2023-05-19T10:09:26.166Z,4.32
2023-05-19T10:11:54.187Z,3.80
2023-05-19T10:14:26.552Z,4.15
2023-05-19T10:16:56.389Z,3.90
2023-05-19T10:19:24.952Z,3.80
2023-05-19T10:21:52.555Z,3.63
2023-05-19T10:24:19.773Z,4.13
2023-05-19T10:27:03.093Z,3.50
2023-05-19T10:29:33.342Z,3.72
2023-05-19T10:32:07.433Z,3.50
2023-05-19T10:35:11.746Z,3.42
2023-05-19T10:37:46.653Z,3.30
2023-05-19T10:40:27.681Z,3.33
2023-05-19T10:43:05.438Z,3.45
2023-05-19T10:45:41.064Z,3.35
2023-05-19T10:48:14.010Z,3.53
2023-05-19T10:50:40.789Z,3.42
2023-05-19T10:53:14.858Z,3.72
2023-05-19T10:55:47.442Z,3.42
2023-05-19T10:58:14.314Z,3.45
2023-05-19T11:00:43.751Z,3.30
2023-05-19T11:03:15.636Z,3.60
2023-05-19T11:05:45.908Z,3.90
2023-05-19T11:08:13.292Z,4.10
2023-05-19T11:10:43.584Z,4.40
2023-05-19T11:13:22.472Z,4.68
2023-05-19T11:15:50.023Z,4.32
2023-05-19T11:18:16.848Z,4.40
2023-05-19T11:20:44.711Z,3.90
2023-05-19T11:23:19.603Z,4.13
2023-05-19T11:25:51.652Z,4.28
2023-05-19T11:28:20.276Z,4.80
2023-05-19T11:30:50.590Z,4.40
2023-05-19T11:33:19.499Z,4.57
2023-05-19T11:35:47.461Z,5.03
2023-05-19T11:38:14.573Z,4.88
2023-05-19T11:40:44.925Z,4.57
2023-05-19T11:43:11.574Z,5.10
2023-05-19T11:45:38.518Z,5.00
2023-05-19T11:48:06.088Z,5.15
2023-05-19T11:50:33.371Z,5.13
2023-05-19T11:53:01.183Z,5.47
2023-05-19T11:55:29.144Z,5.18
2023-05-19T11:58:03.847Z,5.75
2023-05-19T12:00:40.813Z,5.50
2023-05-19T12:03:10.749Z,6.10
2023-05-19T12:05:43.786Z,5.32
2023-05-19T12:08:11.704Z,4.70
2023-05-19T12:10:39.536Z,6.13
2023-05-19T12:13:09.168Z,4.78
2023-05-19T12:15:36.617Z,4.50
2023-05-19T12:18:04.077Z,4.05
2023-05-19T12:20:32.706Z,3.90
2023-05-19T12:23:00.904Z,3.50
2023-05-19T12:25:29.369Z,3.80
2023-05-19T12:28:06.145Z,4.22
2023-05-19T12:30:34.318Z,4.18
2023-05-19T12:33:02.841Z,3.92
2023-05-19T12:35:32.264Z,3.70
2023-05-19T12:38:03.968Z,3.83
2023-05-19T12:40:30.931Z,3.50
2023-05-19T12:42:59.306Z,2.97
2023-05-19T12:45:28.448Z,3.20
2023-05-19T12:47:56.264Z,3.55
2023-05-19T12:50:33.135Z,2.60
2023-05-19T12:53:00.081Z,2.60
2023-05-19T12:55:26.960Z,2.15
2023-05-19T12:57:57.180Z,2.55
2023-05-19T13:00:28.957Z,2.92
2023-05-19T13:03:00.654Z,2.60
2023-05-19T13:05:38.076Z,2.45
2023-05-19T13:08:16.316Z,2.50
2023-05-19T13:10:46.302Z,2.17
2023-05-19T13:13:14.172Z,2.92
2023-05-19T13:15:44.421Z,2.30
2023-05-19T13:18:13.086Z,2.20
2023-05-19T13:20:45.433Z,2.10
2023-05-19T13:23:14.450Z,2.00
2023-05-19T13:25:42.408Z,1.98
2023-05-19T13:28:10.674Z,2.13
2023-05-19T13:30:42.034Z,2.20
2023-05-19T13:33:09.092Z,2.20
2023-05-19T13:35:39.772Z,1.98
2023-05-19T13:38:10.082Z,2.08
2023-05-19T13:40:37.770Z,1.65
2023-05-19T13:43:04.834Z,2.08
2023-05-19T13:45:31.738Z,1.85
2023-05-19T13:47:58.700Z,1.58
2023-05-19T13:50:27.259Z,1.38
2023-05-19T13:52:54.241Z,1.20
2023-05-19T13:55:21.226Z,1.42
2023-05-19T13:57:48.013Z,1.58
2023-05-19T14:00:18.391Z,1.40
2023-05-19T14:02:45.810Z,1.52
2023-05-19T14:05:15.390Z,1.63
2023-05-19T14:07:44.838Z,1.60
2023-05-19T14:10:11.793Z,1.40
2023-05-19T14:12:55.066Z,1.50
2023-05-19T14:15:27.442Z,1.83
2023-05-19T14:17:55.117Z,1.30
2023-05-19T14:20:23.788Z,1.63
2023-05-19T14:22:50.939Z,1.55
2023-05-19T14:25:17.767Z,2.25
2023-05-19T14:27:44.559Z,1.90
2023-05-19T14:30:11.673Z,1.65
2023-05-19T14:32:39.343Z,2.00
2023-05-19T14:35:12.101Z,1.50
2023-05-19T14:37:38.869Z,1.40
2023-05-19T14:40:07.380Z,1.40
2023-05-19T14:42:34.189Z,1.50
2023-05-19T14:45:01.087Z,1.70
2023-05-19T14:47:28.375Z,1.60
2023-05-19T14:49:55.321Z,1.70
2023-05-19T14:52:22.840Z,2.28
2023-05-19T14:54:49.742Z,3.10
2023-05-19T14:57:16.489Z,2.20
2023-05-19T14:59:43.318Z,2.80
2023-05-19T15:02:13.369Z,3.33
2023-05-19T15:04:40.289Z,6.80
2023-05-19T15:07:10.119Z,2.63
2023-05-19T15:09:37.907Z,2.97
